St Ives Cambridgeshire, United Kingdom
Current Conditions -  °F | °C
As of 8:50 AM on Thursday 23 Oct 2014 (Local Time) from EGSC Reporting Station
Broken Clouds Broken Clouds  
Wind Chill: 54°   Ceiling: 3300
Heat Index: 54°   Visibility: 6mi
Dew Point: 48°   Wind: 8mph
Humidity: 82%   Direction: 200°SSW
Pressure: 30.09"   Gusts: NA
Location:  52.34°N, 0.07°W
Report Text: EGSC 230750Z 20007KT 140V240 9999 BKN033 12/09 Q1019
Loading
Personal Weather Stations






























Interactive Weather Map
Tropical Storm Tracking
New forecast layout! Learn more

10-Day Weather Forecast

Advertisements
Track Severe Weather on mobile